Time;durP1;ratioP1;P1;durP2;ratioP2;P2;SDS_P1;SDS_P2;PMS_P1;PMS_P2;Temp;Humidity;BMP_temperature;BMP_pressure;BME280_temperature;BME280_humidity;BME280_pressure;Samples;Min_cycle;Max_cycle;Signal;HPM_P1;HPM_P2
2021/12/18 00:01:06;;;;;;;4.38;3.15;;;7.90;99.90;;;;;;5140682;27;20047;-74
2021/12/18 00:03:33;;;;;;;4.30;2.67;;;7.90;99.90;;;;;;5119395;27;20039;-73
2021/12/18 00:05:58;;;;;;;5.55;3.00;;;7.90;99.90;;;;;;5120431;27;20048;-73
2021/12/18 00:08:24;;;;;;;5.82;3.20;;;7.90;99.90;;;;;;5120483;27;20789;-73
2021/12/18 00:10:50;;;;;;;8.38;3.03;;;7.90;99.90;;;;;;5119644;27;20051;-73
2021/12/18 00:13:16;;;;;;;12.32;4.45;;;7.90;99.90;;;;;;5119882;27;20564;-74
2021/12/18 00:15:42;;;;;;;6.30;3.50;;;7.90;99.90;;;;;;5119560;27;20038;-73
2021/12/18 00:18:08;;;;;;;7.72;3.33;;;7.90;99.90;;;;;;5121469;27;20039;-73
2021/12/18 00:20:36;;;;;;;3.88;2.80;;;7.90;99.90;;;;;;5138622;27;20046;-73
2021/12/18 00:23:02;;;;;;;4.95;3.13;;;7.90;99.90;;;;;;5119463;27;20119;-73
2021/12/18 00:25:27;;;;;;;3.80;2.38;;;7.90;99.90;;;;;;5119753;27;20050;-73
2021/12/18 00:27:53;;;;;;;7.03;2.08;;;7.90;99.90;;;;;;5121227;27;20121;-74
2021/12/18 00:30:19;;;;;;;4.20;2.30;;;7.90;99.90;;;;;;5120013;27;20038;-73
2021/12/18 00:32:44;;;;;;;7.00;2.42;;;7.80;99.90;;;;;;5138091;27;20462;-73
2021/12/18 00:35:11;;;;;;;3.13;2.58;;;7.80;99.90;;;;;;5118512;27;20027;-74
2021/12/18 00:37:36;;;;;;;5.90;2.10;;;7.70;99.90;;;;;;5134939;27;20042;-73
2021/12/18 00:40:10;;;;;;;6.57;2.33;;;7.80;99.90;;;;;;5117291;27;20587;-73
2021/12/18 00:45:05;;;;;;;1.77;1.60;;;7.70;99.90;;;;;;5117643;27;19976;-73
2021/12/18 00:47:31;;;;;;;3.50;3.05;;;7.70;99.90;;;;;;5136318;27;20051;-73
2021/12/18 00:49:57;;;;;;;7.40;3.50;;;7.70;99.90;;;;;;5135450;27;20081;-74
2021/12/18 00:52:23;;;;;;;2.33;1.70;;;7.80;99.90;;;;;;5139499;27;20086;-73
2021/12/18 00:54:49;;;;;;;4.25;1.80;;;7.80;99.90;;;;;;5116684;27;20894;-74
2021/12/18 00:57:15;;;;;;;2.88;2.03;;;7.80;99.90;;;;;;5135900;27;20520;-73
2021/12/18 00:59:40;;;;;;;3.65;1.75;;;7.80;99.90;;;;;;5116704;27;20599;-74
2021/12/18 01:02:06;;;;;;;2.83;1.60;;;7.70;99.90;;;;;;5131747;27;20566;-74
2021/12/18 01:04:32;;;;;;;3.88;2.38;;;7.70;99.90;;;;;;5133660;27;20042;-74
2021/12/18 01:06:59;;;;;;;3.17;1.90;;;6.90;99.90;;;;;;5134996;27;20393;-74
2021/12/18 01:09:43;;;;;;;2.40;1.80;;;7.70;99.90;;;;;;5138665;27;20157;-74
2021/12/18 01:12:09;;;;;;;3.38;1.95;;;7.60;99.90;;;;;;5115871;27;20080;-73
2021/12/18 01:14:51;;;;;;;6.43;2.97;;;7.60;99.90;;;;;;5135880;27;20054;-74
2021/12/18 01:22:47;;;;;;;2.78;2.00;;;7.70;99.90;;;;;;5116398;27;20051;-73
2021/12/18 01:25:14;;;;;;;4.10;2.05;;;7.70;99.90;;;;;;5116543;27;20047;-74
2021/12/18 01:27:40;;;;;;;3.78;2.05;;;7.70;99.90;;;;;;5115965;27;20402;-73
2021/12/18 01:30:08;;;;;;;2.00;1.77;;;7.70;99.90;;;;;;5135848;27;20042;-73
2021/12/18 01:32:34;;;;;;;3.00;1.88;;;7.70;99.90;;;;;;5116093;27;20777;-74
2021/12/18 01:35:01;;;;;;;14.00;2.65;;;7.70;99.90;;;;;;5115814;27;20035;-73
2021/12/18 01:37:27;;;;;;;1.83;1.60;;;7.70;99.90;;;;;;5119590;27;20042;-73
2021/12/18 01:39:53;;;;;;;4.28;2.15;;;7.70;99.90;;;;;;5113169;27;20054;-73
2021/12/18 01:53:11;;;;;;;4.32;2.17;;;7.70;99.90;;;;;;5133635;27;20083;-73
2021/12/18 01:55:38;;;;;;;8.05;2.60;;;7.60;99.90;;;;;;5132740;27;20560;-73
2021/12/18 01:58:06;;;;;;;3.80;2.50;;;7.60;99.90;;;;;;5115363;27;20047;-74
2021/12/18 02:00:37;;;;;;;4.00;2.35;;;7.70;99.90;;;;;;5134479;27;20576;-74
2021/12/18 02:03:04;;;;;;;8.10;2.90;;;7.70;99.90;;;;;;5115674;27;20497;-74
2021/12/18 02:05:30;;;;;;;11.55;2.60;;;7.70;99.90;;;;;;5116092;27;20052;-75
2021/12/18 02:07:56;;;;;;;5.28;2.40;;;7.70;99.90;;;;;;5135794;27;20479;-75
2021/12/18 02:10:26;;;;;;;8.02;2.20;;;7.70;99.90;;;;;;5114770;27;20058;-75
2021/12/18 02:13:08;;;;;;;3.63;2.85;;;7.70;99.90;;;;;;5118146;27;20039;-75
2021/12/18 02:21:16;;;;;;;4.28;2.60;;;7.60;99.90;;;;;;5138880;27;20826;-75
2021/12/18 02:23:42;;;;;;;6.60;2.35;;;7.50;99.90;;;;;;5138728;27;20050;-75
2021/12/18 02:26:08;;;;;;;3.60;2.33;;;7.40;99.90;;;;;;5113831;27;20150;-75
2021/12/18 02:28:33;;;;;;;12.50;2.00;;;7.40;99.90;;;;;;5138895;27;20043;-75
2021/12/18 02:30:59;;;;;;;2.13;1.80;;;7.40;99.90;;;;;;5119866;27;20070;-75
2021/12/18 02:33:26;;;;;;;2.78;1.88;;;7.40;99.90;;;;;;5119752;27;20058;-75
2021/12/18 02:35:54;;;;;;;2.97;2.67;;;7.40;99.90;;;;;;5129486;27;20087;-75
2021/12/18 02:38:28;;;;;;;3.25;1.98;;;7.50;99.90;;;;;;5121317;27;20043;-75
2021/12/18 02:41:14;;;;;;;6.55;2.63;;;7.40;99.90;;;;;;5121443;27;20576;-75
2021/12/18 02:43:41;;;;;;;3.05;1.63;;;7.40;99.90;;;;;;5145410;27;20921;-75
2021/12/18 02:46:08;;;;;;;3.88;2.20;;;7.40;99.90;;;;;;5120608;27;20129;-74
2021/12/18 02:48:40;;;;;;;3.55;1.92;;;7.50;99.90;;;;;;5120674;27;20051;-75
2021/12/18 02:51:08;;;;;;;3.25;1.90;;;7.40;99.90;;;;;;5142315;27;20038;-75
2021/12/18 02:53:37;;;;;;;2.40;2.08;;;7.40;99.90;;;;;;5120130;27;20111;-75
2021/12/18 02:56:06;;;;;;;3.13;1.75;;;7.50;99.90;;;;;;5118897;27;20047;-75
2021/12/18 02:58:36;;;;;;;5.80;2.67;;;7.50;99.90;;;;;;5118491;27;20070;-75
2021/12/18 03:01:04;;;;;;;4.93;1.98;;;7.50;99.90;;;;;;5117992;27;20107;-75
2021/12/18 03:03:33;;;;;;;4.78;1.88;;;7.50;99.90;;;;;;5118528;27;20053;-75
2021/12/18 03:06:46;;;;;;;3.60;1.90;;;7.60;99.90;;;;;;5136771;27;20173;-74
2021/12/18 03:09:10;;;;;;;5.63;2.80;;;7.60;99.90;;;;;;5130001;27;20057;-75
2021/12/18 03:20:57;;;;;;;1.92;1.50;;;7.60;99.90;;;;;;5121625;27;20644;-75
2021/12/18 03:23:26;;;;;;;2.33;1.63;;;7.60;99.90;;;;;;5120464;27;20131;-75
2021/12/18 03:25:56;;;;;;;4.18;2.00;;;7.70;99.90;;;;;;5121205;27;20078;-75
2021/12/18 03:28:21;;;;;;;3.60;2.05;;;7.70;99.90;;;;;;5139659;27;20050;-75
2021/12/18 03:30:47;;;;;;;4.88;2.08;;;7.70;99.90;;;;;;5120682;27;20102;-75
2021/12/18 03:33:13;;;;;;;6.80;2.28;;;7.70;99.90;;;;;;5138515;27;20047;-75
2021/12/18 03:35:38;;;;;;;4.03;1.67;;;7.70;99.90;;;;;;5140154;27;20042;-72
2021/12/18 03:38:04;;;;;;;3.40;1.70;;;7.70;99.90;;;;;;5133272;27;20123;-73
2021/12/18 03:40:30;;;;;;;2.53;1.73;;;7.70;99.90;;;;;;5140125;27;20043;-72
2021/12/18 03:42:56;;;;;;;3.00;2.13;;;7.70;99.90;;;;;;5143075;27;20038;-72
2021/12/18 03:45:23;;;;;;;3.97;1.60;;;7.70;99.90;;;;;;5140025;27;20051;-73
2021/12/18 03:47:50;;;;;;;2.90;2.22;;;7.70;99.90;;;;;;5139491;27;20042;-73
2021/12/18 03:50:16;;;;;;;4.05;1.30;;;7.70;99.90;;;;;;5129759;27;20054;-73
2021/12/18 03:52:41;;;;;;;1.75;1.13;;;7.70;99.90;;;;;;5144927;27;20049;-72
2021/12/18 03:55:07;;;;;;;2.80;1.10;;;7.70;99.90;;;;;;5138862;27;20081;-73
2021/12/18 03:57:33;;;;;;;3.20;1.95;;;7.60;99.90;;;;;;5139504;27;20047;-72
2021/12/18 03:59:59;;;;;;;2.15;1.35;;;7.70;99.90;;;;;;5140570;27;20076;-73
2021/12/18 04:02:25;;;;;;;3.45;1.38;;;7.60;99.90;;;;;;5119857;27;20058;-72
2021/12/18 04:04:50;;;;;;;1.58;1.15;;;7.60;99.90;;;;;;5120493;27;20039;-73
2021/12/18 04:07:16;;;;;;;2.40;1.48;;;7.60;99.90;;;;;;5143876;27;20072;-73
2021/12/18 04:09:42;;;;;;;4.03;1.60;;;7.60;99.90;;;;;;5138679;27;20516;-75
2021/12/18 04:12:08;;;;;;;3.25;2.03;;;7.60;99.90;;;;;;5139981;27;20146;-75
2021/12/18 04:14:34;;;;;;;3.95;1.92;;;7.60;99.90;;;;;;5140014;27;20706;-75
2021/12/18 04:17:00;;;;;;;3.58;1.75;;;7.60;99.90;;;;;;5131703;27;20049;-75
2021/12/18 04:19:25;;;;;;;4.15;2.30;;;7.60;99.90;;;;;;5121209;27;20181;-75
2021/12/18 04:21:51;;;;;;;3.83;1.80;;;7.60;99.90;;;;;;5120111;27;20042;-75
2021/12/18 04:24:16;;;;;;;2.42;1.63;;;7.60;99.90;;;;;;5127966;27;20054;-75
2021/12/18 04:26:42;;;;;;;2.95;1.60;;;7.60;99.90;;;;;;5140107;27;20043;-75
2021/12/18 04:29:08;;;;;;;2.20;1.70;;;7.60;99.90;;;;;;5139415;27;20046;-73
2021/12/18 04:31:36;;;;;;;2.42;1.60;;;7.60;99.90;;;;;;5139755;27;20047;-73
2021/12/18 04:34:02;;;;;;;2.13;1.48;;;7.60;99.90;;;;;;5120130;27;20046;-73
2021/12/18 04:36:28;;;;;;;2.17;1.13;;;7.60;99.90;;;;;;5118584;27;20050;-72
2021/12/18 04:38:54;;;;;;;2.42;1.20;;;7.60;99.90;;;;;;5120328;27;20120;-72
2021/12/18 04:41:34;;;;;;;2.90;1.52;;;7.70;99.90;;;;;;5139288;27;20157;-72
2021/12/18 04:44:00;;;;;;;2.97;1.27;;;7.70;99.90;;;;;;5137862;27;20046;-73
2021/12/18 04:46:25;;;;;;;2.67;1.38;;;7.70;99.90;;;;;;5120512;27;20095;-72
2021/12/18 04:48:51;;;;;;;3.22;1.55;;;7.70;99.90;;;;;;5138698;27;20066;-72
2021/12/18 04:51:16;;;;;;;2.20;1.50;;;7.70;99.90;;;;;;5118778;27;20050;-72
2021/12/18 04:53:42;;;;;;;4.80;1.50;;;7.70;99.90;;;;;;5119966;27;20059;-73
2021/12/18 04:56:08;;;;;;;1.40;1.00;;;7.70;99.90;;;;;;5138023;27;20042;-73
2021/12/18 04:58:33;;;;;;;2.60;0.88;;;7.70;99.90;;;;;;5141292;27;20550;-72
2021/12/18 05:00:59;;;;;;;2.10;1.15;;;7.80;99.90;;;;;;5120652;27;20043;-73
2021/12/18 05:03:25;;;;;;;1.40;0.85;;;7.70;99.90;;;;;;5138774;27;20047;-73
2021/12/18 05:05:50;;;;;;;2.17;1.00;;;7.80;99.90;;;;;;5137951;27;20062;-73
2021/12/18 05:08:16;;;;;;;1.23;0.88;;;7.80;99.90;;;;;;5138263;27;20894;-73
2021/12/18 05:10:41;;;;;;;1.75;1.10;;;7.80;99.90;;;;;;5120465;27;20054;-73
2021/12/18 05:13:07;;;;;;;1.55;1.17;;;7.80;99.90;;;;;;5138296;27;20608;-73
2021/12/18 05:15:33;;;;;;;1.52;0.80;;;7.80;99.90;;;;;;5139775;27;20050;-73
2021/12/18 05:17:59;;;;;;;2.33;1.77;;;7.90;99.90;;;;;;5138581;27;20111;-73
2021/12/18 05:20:25;;;;;;;3.30;1.33;;;7.80;99.90;;;;;;5119371;27;20154;-73
2021/12/18 05:22:50;;;;;;;2.97;1.23;;;7.80;99.90;;;;;;5119706;27;20126;-73
2021/12/18 05:25:16;;;;;;;1.60;1.33;;;7.90;99.90;;;;;;5118855;27;20038;-73
2021/12/18 05:27:42;;;;;;;2.22;1.60;;;7.90;99.90;;;;;;5138327;27;20047;-73
2021/12/18 05:30:09;;;;;;;1.95;1.35;;;7.90;99.90;;;;;;5138540;27;20082;-73
2021/12/18 05:32:35;;;;;;;2.55;1.60;;;7.90;99.90;;;;;;5138945;27;20775;-73
2021/12/18 05:35:02;;;;;;;3.50;1.55;;;7.90;99.90;;;;;;5119692;27;20047;-73
2021/12/18 05:37:43;;;;;;;2.95;1.80;;;7.90;99.90;;;;;;5119931;27;20057;-73
2021/12/18 05:40:09;;;;;;;2.38;1.40;;;7.90;99.90;;;;;;5137851;27;20065;-73
2021/12/18 05:42:35;;;;;;;2.90;1.70;;;7.90;99.90;;;;;;5143096;27;20161;-73
2021/12/18 05:45:01;;;;;;;3.00;2.15;;;7.90;99.90;;;;;;5137333;27;20043;-73
2021/12/18 05:47:26;;;;;;;2.90;1.50;;;8.00;99.90;;;;;;5118784;27;20051;-73
2021/12/18 05:49:52;;;;;;;5.57;2.55;;;8.00;99.90;;;;;;5138201;27;20042;-73
2021/12/18 05:52:17;;;;;;;3.13;1.60;;;8.00;99.90;;;;;;5118763;27;20050;-73
2021/12/18 05:54:43;;;;;;;2.05;1.83;;;7.90;99.90;;;;;;5118362;27;20046;-73
2021/12/18 05:57:14;;;;;;;8.52;2.47;;;8.00;99.90;;;;;;5142500;27;20047;-73
2021/12/18 05:59:40;;;;;;;2.60;1.70;;;8.00;99.90;;;;;;5118922;27;20051;-73
2021/12/18 06:02:06;;;;;;;2.53;2.03;;;8.00;99.90;;;;;;5136937;27;20041;-72
2021/12/18 06:04:31;;;;;;;4.68;2.53;;;8.00;99.90;;;;;;5136593;27;20055;-73
2021/12/18 06:07:05;;;;;;;2.55;1.60;;;8.00;99.90;;;;;;5118296;27;20054;-73
2021/12/18 06:09:34;;;;;;;2.50;2.20;;;8.00;99.90;;;;;;5136495;27;20486;-73
2021/12/18 06:12:01;;;;;;;3.65;1.58;;;8.00;99.90;;;;;;5138772;27;20119;-74
2021/12/18 06:14:27;;;;;;;3.38;2.17;;;8.10;99.90;;;;;;5118340;27;20937;-73
2021/12/18 06:16:53;;;;;;;2.80;2.20;;;8.10;99.90;;;;;;5137872;27;20073;-73
2021/12/18 06:19:19;;;;;;;4.80;1.83;;;8.10;99.90;;;;;;5118894;27;20486;-73
2021/12/18 06:21:44;;;;;;;4.13;2.22;;;8.10;99.90;;;;;;5136914;27;20247;-74
2021/12/18 06:24:10;;;;;;;4.10;2.25;;;8.10;99.90;;;;;;5118879;27;20046;-74
2021/12/18 06:26:35;;;;;;;2.55;1.67;;;8.10;99.90;;;;;;5137694;27;20113;-74
2021/12/18 06:29:01;;;;;;;4.35;1.80;;;8.10;99.90;;;;;;5118189;27;20089;-73
2021/12/18 06:31:27;;;;;;;6.53;2.95;;;8.10;99.90;;;;;;5118309;27;20798;-74
2021/12/18 06:33:52;;;;;;;6.85;3.00;;;8.20;99.90;;;;;;5118458;27;20076;-73
2021/12/18 06:36:18;;;;;;;3.25;2.38;;;8.20;99.90;;;;;;5118253;27;20075;-74
2021/12/18 06:38:43;;;;;;;2.92;2.38;;;8.20;99.90;;;;;;5118388;27;20034;-74
2021/12/18 06:41:09;;;;;;;6.13;3.35;;;8.30;99.90;;;;;;5119444;27;20057;-74
2021/12/18 06:43:34;;;;;;;6.00;3.22;;;8.30;99.90;;;;;;5141364;27;20046;-74
2021/12/18 06:46:00;;;;;;;4.82;2.88;;;8.30;99.90;;;;;;5118068;27;20130;-74
2021/12/18 06:48:26;;;;;;;4.28;3.22;;;8.30;99.90;;;;;;5136512;27;20050;-74
2021/12/18 06:50:51;;;;;;;5.57;3.20;;;8.40;99.90;;;;;;5117352;27;20146;-73
2021/12/18 06:53:17;;;;;;;3.70;2.80;;;8.40;99.90;;;;;;5117654;27;20119;-74
2021/12/18 06:55:43;;;;;;;5.75;3.25;;;8.40;99.90;;;;;;5116529;27;20043;-73
2021/12/18 06:58:09;;;;;;;4.35;3.67;;;8.40;99.90;;;;;;5123592;27;20082;-73
2021/12/18 07:00:35;;;;;;;5.28;3.47;;;8.40;99.90;;;;;;5139428;27;20909;-74
2021/12/18 07:03:00;;;;;;;6.65;3.72;;;8.50;99.90;;;;;;5125665;27;20046;-74
2021/12/18 07:05:26;;;;;;;8.35;3.90;;;8.50;99.90;;;;;;5121698;27;20930;-74
2021/12/18 07:07:52;;;;;;;6.05;3.70;;;8.50;99.90;;;;;;5127442;27;20235;-74
2021/12/18 07:10:19;;;;;;;4.13;3.42;;;8.40;99.90;;;;;;5122658;27;20984;-74
2021/12/18 07:12:44;;;;;;;5.13;3.17;;;8.50;99.90;;;;;;5122294;27;20038;-74
2021/12/18 07:15:11;;;;;;;7.53;4.45;;;8.50;99.90;;;;;;5140051;27;20042;-74
2021/12/18 07:17:37;;;;;;;6.38;3.97;;;8.50;99.90;;;;;;5125087;27;20057;-73
2021/12/18 07:20:04;;;;;;;10.60;4.10;;;8.50;99.90;;;;;;5140482;27;20527;-74
2021/12/18 07:22:30;;;;;;;5.47;3.40;;;8.50;99.90;;;;;;5122512;27;20057;-73
2021/12/18 07:24:56;;;;;;;6.07;3.63;;;8.50;99.90;;;;;;5121656;27;20042;-74
2021/12/18 07:27:21;;;;;;;12.27;3.72;;;8.50;99.90;;;;;;5141943;27;20046;-74
2021/12/18 07:29:47;;;;;;;12.02;4.00;;;8.60;99.90;;;;;;5122329;27;20075;-74
2021/12/18 07:32:13;;;;;;;9.90;3.80;;;8.60;99.90;;;;;;5121510;27;20058;-74
2021/12/18 07:34:38;;;;;;;5.32;3.08;;;8.60;99.90;;;;;;5145616;27;20122;-74
2021/12/18 07:37:04;;;;;;;7.60;2.47;;;8.60;99.90;;;;;;5121728;27;20078;-74
2021/12/18 07:39:30;;;;;;;4.82;3.15;;;8.60;99.90;;;;;;5120950;27;20055;-74
2021/12/18 07:41:55;;;;;;;5.63;3.03;;;8.60;99.90;;;;;;5125481;27;20053;-74
2021/12/18 07:44:21;;;;;;;9.35;3.60;;;8.60;99.90;;;;;;5122624;27;20141;-74
2021/12/18 07:46:47;;;;;;;5.45;3.20;;;8.60;99.90;;;;;;5122336;27;20057;-74
2021/12/18 07:49:12;;;;;;;8.57;3.30;;;8.60;99.90;;;;;;5122426;27;20128;-74
2021/12/18 07:51:38;;;;;;;5.30;3.20;;;8.70;99.90;;;;;;5140727;27;20087;-75
2021/12/18 07:54:05;;;;;;;6.50;3.67;;;8.70;99.90;;;;;;5121742;27;20035;-75
2021/12/18 07:56:31;;;;;;;7.00;2.85;;;8.70;99.90;;;;;;5125820;27;20077;-74
2021/12/18 07:58:58;;;;;;;3.03;2.45;;;8.70;99.90;;;;;;5141119;27;20046;-75
2021/12/18 08:01:23;;;;;;;8.35;2.78;;;8.70;99.90;;;;;;5120343;27;20050;-76
2021/12/18 08:03:49;;;;;;;5.93;3.05;;;8.70;99.90;;;;;;5118327;27;20458;-75
2021/12/18 08:06:15;;;;;;;7.15;3.08;;;8.70;99.90;;;;;;5120521;27;20877;-75
2021/12/18 08:08:41;;;;;;;9.18;3.45;;;8.70;99.90;;;;;;5140009;27;20833;-75
2021/12/18 08:11:07;;;;;;;6.80;3.00;;;8.70;99.90;;;;;;5135988;27;20064;-75
2021/12/18 08:13:32;;;;;;;4.10;2.60;;;8.80;99.90;;;;;;5119666;27;20134;-74
2021/12/18 08:15:58;;;;;;;4.38;2.88;;;8.70;99.90;;;;;;5119084;27;20042;-75
2021/12/18 08:18:23;;;;;;;10.30;4.22;;;8.80;99.90;;;;;;5136843;27;20451;-75
2021/12/18 08:20:49;;;;;;;4.57;2.85;;;8.80;99.90;;;;;;5137110;27;20070;-76
2021/12/18 08:23:15;;;;;;;3.08;2.78;;;8.80;99.90;;;;;;5116413;27;20050;-74
2021/12/18 08:25:40;;;;;;;5.13;3.00;;;8.80;99.90;;;;;;5136015;27;20042;-75
2021/12/18 08:28:07;;;;;;;10.07;3.00;;;8.80;99.90;;;;;;5116754;27;20111;-75
2021/12/18 08:30:34;;;;;;;8.73;3.33;;;8.80;99.90;;;;;;5116998;27;20058;-75
2021/12/18 08:33:00;;;;;;;7.70;3.15;;;8.80;99.90;;;;;;5136750;27;20039;-74
2021/12/18 08:35:27;;;;;;;5.72;2.67;;;8.90;99.90;;;;;;5136604;27;20051;-75
2021/12/18 08:37:53;;;;;;;6.57;2.78;;;8.90;99.90;;;;;;5136444;27;20073;-74
2021/12/18 08:40:20;;;;;;;6.07;2.53;;;8.90;99.90;;;;;;5115206;27;20146;-75
2021/12/18 08:42:46;;;;;;;8.00;2.20;;;8.60;99.90;;;;;;5115465;27;20050;-74
2021/12/18 08:45:14;;;;;;;5.53;2.63;;;8.90;99.90;;;;;;5136331;27;20043;-75
2021/12/18 08:47:39;;;;;;;5.30;2.78;;;8.90;99.90;;;;;;5115117;27;20051;-75
2021/12/18 08:50:07;;;;;;;6.85;2.30;;;8.90;99.90;;;;;;5134888;27;20091;-75
2021/12/18 08:52:32;;;;;;;4.78;2.17;;;8.90;99.90;;;;;;5134964;27;20058;-75
2021/12/18 08:55:03;;;;;;;6.88;2.97;;;8.90;99.90;;;;;;5137089;27;20038;-75
2021/12/18 08:57:28;;;;;;;3.85;3.05;;;8.90;99.90;;;;;;5133137;27;20054;-75
2021/12/18 08:59:54;;;;;;;5.07;2.70;;;8.90;99.90;;;;;;5136858;27;20042;-75
2021/12/18 09:02:20;;;;;;;9.38;3.35;;;8.90;99.90;;;;;;5116649;27;20936;-75
2021/12/18 09:04:45;;;;;;;6.78;2.97;;;8.90;99.90;;;;;;5135092;27;20046;-74
2021/12/18 09:07:11;;;;;;;3.60;2.13;;;8.90;99.90;;;;;;5136278;27;20146;-74
2021/12/18 09:09:38;;;;;;;7.30;2.53;;;8.90;99.90;;;;;;5116769;27;20099;-75
2021/12/18 09:12:04;;;;;;;4.55;1.88;;;9.00;99.90;;;;;;5136197;27;20461;-75
2021/12/18 09:14:30;;;;;;;6.78;2.42;;;9.00;99.90;;;;;;5137059;27;20047;-75
2021/12/18 09:16:55;;;;;;;3.58;1.77;;;9.00;99.90;;;;;;5117792;27;20055;-75
2021/12/18 09:19:21;;;;;;;5.50;1.65;;;8.90;99.90;;;;;;5118164;27;20038;-74
2021/12/18 09:21:46;;;;;;;3.03;1.92;;;9.00;99.90;;;;;;5117961;27;20045;-75
2021/12/18 09:24:12;;;;;;;4.88;1.85;;;9.00;99.90;;;;;;5135464;27;20103;-75
2021/12/18 09:26:38;;;;;;;3.13;1.80;;;9.00;99.90;;;;;;5117523;27;20042;-75
2021/12/18 09:29:03;;;;;;;3.78;1.80;;;9.00;99.90;;;;;;5136522;27;20046;-75
2021/12/18 09:31:29;;;;;;;3.70;2.15;;;9.00;99.90;;;;;;5134654;27;20053;-75
2021/12/18 09:33:55;;;;;;;4.88;2.28;;;9.00;99.90;;;;;;5135418;27;20045;-75
2021/12/18 09:36:20;;;;;;;6.15;2.13;;;9.00;99.90;;;;;;5136581;27;20058;-75
2021/12/18 09:38:46;;;;;;;2.22;1.88;;;9.00;99.90;;;;;;5117413;27;20053;-75
2021/12/18 09:41:12;;;;;;;6.97;1.83;;;9.00;99.90;;;;;;5134894;27;20477;-74
2021/12/18 09:43:38;;;;;;;7.10;2.50;;;9.10;99.90;;;;;;5136223;27;20819;-74
2021/12/18 09:46:09;;;;;;;8.07;2.63;;;9.10;99.90;;;;;;5119409;27;20074;-70
2021/12/18 09:48:40;;;;;;;7.38;2.22;;;9.10;99.90;;;;;;5119164;27;20893;-70
2021/12/18 09:51:11;;;;;;;3.17;1.80;;;9.10;99.90;;;;;;5139395;27;20050;-70
2021/12/18 09:53:39;;;;;;;5.50;1.90;;;9.10;99.90;;;;;;5120525;27;20125;-71
2021/12/18 09:56:06;;;;;;;6.72;3.47;;;9.10;99.90;;;;;;5121010;27;20055;-70
2021/12/18 09:58:32;;;;;;;6.70;2.35;;;9.20;99.90;;;;;;5125282;27;20051;-71
2021/12/18 10:00:58;;;;;;;3.45;2.00;;;9.10;99.90;;;;;;5121107;27;20366;-76
2021/12/18 10:03:49;;;;;;;7.25;2.28;;;9.20;99.90;;;;;;5120963;27;20050;-69
2021/12/18 10:06:37;;;;;;;4.30;2.13;;;9.20;99.90;;;;;;5119936;27;20046;-75
2021/12/18 10:09:06;;;;;;;7.15;2.28;;;9.20;99.90;;;;;;5133314;27;20412;-75
2021/12/18 10:11:32;;;;;;;7.20;2.65;;;9.30;99.90;;;;;;5120791;27;20085;-76
2021/12/18 10:14:03;;;;;;;5.15;2.90;;;9.30;99.90;;;;;;5119982;27;20153;-75
2021/12/18 10:16:30;;;;;;;6.93;3.40;;;9.30;99.90;;;;;;5139598;27;20572;-75
2021/12/18 10:18:58;;;;;;;8.25;3.40;;;9.30;99.90;;;;;;5139272;27;20047;-75
2021/12/18 10:21:27;;;;;;;11.95;3.72;;;9.30;99.90;;;;;;5138336;27;20816;-75
2021/12/18 10:23:54;;;;;;;7.38;3.55;;;9.30;99.90;;;;;;5120204;27;20079;-75
2021/12/18 10:26:38;;;;;;;5.35;3.42;;;9.30;99.90;;;;;;5138345;27;20377;-75
2021/12/18 10:29:06;;;;;;;7.75;5.03;;;9.30;99.90;;;;;;5118567;27;20047;-75
2021/12/18 10:31:44;;;;;;;7.15;3.67;;;9.30;99.90;;;;;;5137869;27;20077;-75
2021/12/18 10:34:25;;;;;;;6.93;3.20;;;9.30;99.90;;;;;;5121382;27;20088;-75
2021/12/18 10:37:19;;;;;;;5.57;3.35;;;9.30;99.90;;;;;;5122791;27;20099;-75
2021/12/18 10:39:53;;;;;;;8.02;4.45;;;9.30;99.90;;;;;;5139212;27;20155;-75
2021/12/18 10:42:42;;;;;;;6.13;3.28;;;9.30;99.90;;;;;;5144446;27;20564;-75
2021/12/18 10:45:18;;;;;;;9.27;3.88;;;9.30;99.90;;;;;;5140979;27;20085;-76
2021/12/18 10:48:03;;;;;;;3.50;3.05;;;9.20;99.90;;;;;;5124643;27;20049;-76
2021/12/18 10:50:50;;;;;;;4.55;3.25;;;9.20;99.90;;;;;;5124077;27;20047;-75
2021/12/18 10:53:18;;;;;;;6.60;3.60;;;9.20;99.90;;;;;;5124421;27;20103;-76
2021/12/18 10:55:52;;;;;;;6.82;3.80;;;9.20;99.90;;;;;;5123668;27;20055;-75
2021/12/18 10:58:31;;;;;;;8.73;3.70;;;9.30;99.90;;;;;;5146090;27;20780;-74
2021/12/18 11:01:09;;;;;;;6.70;3.60;;;9.30;99.90;;;;;;5124246;27;20050;-74
2021/12/18 11:03:39;;;;;;;8.85;2.50;;;9.30;99.90;;;;;;5123767;27;20592;-74
2021/12/18 11:06:07;;;;;;;4.57;2.40;;;9.30;99.90;;;;;;5142564;27;20138;-74
2021/12/18 11:08:52;;;;;;;9.80;3.78;;;9.30;99.90;;;;;;5149121;27;20047;-74
2021/12/18 11:14:06;;;;;;;6.55;3.10;;;9.40;99.90;;;;;;5124218;27;20047;-75
2021/12/18 11:16:36;;;;;;;6.43;3.08;;;9.40;99.90;;;;;;5142616;27;20047;-75
2021/12/18 11:19:07;;;;;;;5.50;3.63;;;9.40;99.90;;;;;;5142078;27;20046;-75
2021/12/18 11:21:34;;;;;;;4.07;2.70;;;9.50;99.90;;;;;;5142595;27;20047;-75
2021/12/18 11:24:04;;;;;;;2.65;2.10;;;9.40;99.90;;;;;;5142267;27;20058;-75
2021/12/18 11:26:44;;;;;;;2.72;2.10;;;9.40;99.90;;;;;;5123901;27;20046;-70
2021/12/18 11:29:19;;;;;;;9.95;2.60;;;9.40;99.90;;;;;;5140742;27;20081;-76
2021/12/18 11:31:46;;;;;;;4.20;2.15;;;9.40;99.90;;;;;;5139010;27;20058;-75
2021/12/18 11:34:12;;;;;;;8.40;2.80;;;9.40;99.90;;;;;;5119862;27;20050;-75
2021/12/18 11:36:40;;;;;;;6.20;2.30;;;9.50;99.90;;;;;;5139151;27;20053;-75
2021/12/18 11:39:07;;;;;;;5.45;2.22;;;9.50;99.90;;;;;;5119073;27;20057;-75
2021/12/18 11:41:33;;;;;;;2.97;1.92;;;9.50;99.90;;;;;;5139865;27;20109;-75
2021/12/18 11:43:59;;;;;;;3.30;2.08;;;9.50;99.90;;;;;;5122165;27;20229;-75
2021/12/18 11:46:30;;;;;;;5.15;2.53;;;9.50;99.90;;;;;;5120764;27;20047;-76
2021/12/18 11:49:08;;;;;;;4.28;2.45;;;9.50;99.90;;;;;;5121203;27;20080;-75
2021/12/18 11:51:34;;;;;;;3.03;2.10;;;9.50;99.90;;;;;;5120698;27;20137;-75
2021/12/18 11:54:05;;;;;;;2.75;2.10;;;9.50;99.90;;;;;;5119087;27;20282;-75
2021/12/18 11:56:50;;;;;;;6.55;2.20;;;9.60;99.90;;;;;;5116410;27;20050;-76
2021/12/18 11:59:42;;;;;;;6.25;2.40;;;9.50;99.90;;;;;;5134659;27;20119;-76
2021/12/18 12:02:10;;;;;;;4.82;2.58;;;9.50;99.90;;;;;;5138618;27;20078;-75
2021/12/18 12:04:58;;;;;;;4.50;2.25;;;9.60;99.90;;;;;;5118923;27;20054;-76
2021/12/18 12:07:26;;;;;;;12.07;2.70;;;9.60;99.90;;;;;;5133613;27;20535;-75
2021/12/18 12:10:34;;;;;;;3.58;2.30;;;9.60;99.90;;;;;;5114302;27;20054;-74
2021/12/18 12:13:00;;;;;;;4.47;2.35;;;9.60;99.90;;;;;;5114103;27;20039;-75
2021/12/18 12:15:28;;;;;;;6.30;2.75;;;9.70;99.90;;;;;;5119090;27;20073;-75
2021/12/18 12:18:05;;;;;;;4.47;2.05;;;9.60;99.90;;;;;;5131563;27;20049;-75
2021/12/18 12:20:43;;;;;;;3.08;2.45;;;9.70;99.90;;;;;;5118820;27;20046;-75
2021/12/18 12:23:10;;;;;;;3.97;2.38;;;9.70;99.90;;;;;;5121631;27;20050;-76
2021/12/18 12:25:46;;;;;;;6.55;2.30;;;9.70;99.90;;;;;;5119656;27;20149;-76
2021/12/18 12:28:23;;;;;;;4.53;1.80;;;9.70;99.90;;;;;;5132549;27;20112;-75
2021/12/18 12:31:06;;;;;;;4.78;2.33;;;9.60;99.90;;;;;;5122790;27;20054;-75
2021/12/18 12:33:35;;;;;;;4.13;2.13;;;9.60;99.90;;;;;;5122325;27;20039;-75
2021/12/18 12:36:22;;;;;;;7.18;3.28;;;9.60;99.90;;;;;;5140101;27;20154;-75
2021/12/18 12:39:00;;;;;;;4.45;2.50;;;9.60;99.90;;;;;;5120256;27;20141;-75
2021/12/18 12:41:33;;;;;;;3.63;2.90;;;9.60;99.90;;;;;;5120515;27;20742;-75
2021/12/18 12:44:03;;;;;;;5.38;2.17;;;9.60;99.90;;;;;;5138635;27;20038;-76
2021/12/18 12:46:30;;;;;;;4.93;2.38;;;9.60;99.90;;;;;;5121093;27;20057;-75
2021/12/18 12:49:08;;;;;;;5.65;2.83;;;9.60;99.90;;;;;;5139597;27;20050;-75
2021/12/18 12:52:03;;;;;;;4.20;2.65;;;9.70;99.90;;;;;;5117003;27;20401;-71
2021/12/18 12:55:02;;;;;;;6.03;2.63;;;9.70;99.90;;;;;;5119509;27;20054;-70
2021/12/18 12:57:29;;;;;;;6.40;2.38;;;9.70;99.90;;;;;;5118080;27;20470;-75
2021/12/18 12:59:57;;;;;;;5.00;3.08;;;9.70;99.90;;;;;;5120246;27;20042;-75
2021/12/18 13:02:24;;;;;;;5.95;2.95;;;9.70;99.90;;;;;;5117140;27;20046;-75
2021/12/18 13:05:03;;;;;;;6.25;2.67;;;9.70;99.90;;;;;;5119534;27;20053;-75
2021/12/18 13:07:29;;;;;;;3.58;2.45;;;9.80;99.90;;;;;;5138867;27;20150;-75
2021/12/18 13:09:54;;;;;;;7.15;3.13;;;9.80;99.90;;;;;;5121002;27;20436;-75
2021/12/18 13:12:20;;;;;;;4.95;2.50;;;9.70;99.90;;;;;;5121847;27;20086;-75
2021/12/18 13:14:46;;;;;;;5.57;2.55;;;9.80;99.90;;;;;;5121008;27;20046;-75
2021/12/18 13:17:19;;;;;;;5.03;2.63;;;9.70;99.90;;;;;;4761362;27;9999967;-74
2021/12/18 13:19:55;;;;;;;;;;;9.80;99.90;;;;;;5113463;27;20057;-74
2021/12/18 13:22:25;;;;;;;7.63;2.60;;;9.70;99.90;;;;;;5113697;27;19923;-74
2021/12/18 13:25:02;;;;;;;3.35;2.45;;;9.80;99.90;;;;;;5133267;27;20091;-74
2021/12/18 13:27:28;;;;;;;3.08;2.10;;;9.80;99.90;;;;;;5132069;27;20039;-74
2021/12/18 13:30:13;;;;;;;5.95;2.70;;;9.80;99.90;;;;;;5115127;27;20084;-74
2021/12/18 13:33:01;;;;;;;4.97;2.45;;;9.80;99.90;;;;;;5132766;27;20064;-74
2021/12/18 13:35:29;;;;;;;5.30;2.80;;;9.80;99.90;;;;;;5113422;27;20089;-75
2021/12/18 13:38:05;;;;;;;4.65;2.97;;;9.70;99.90;;;;;;5133914;27;20066;-74
2021/12/18 13:40:43;;;;;;;6.07;2.38;;;9.70;99.90;;;;;;5112550;27;20106;-74
2021/12/18 13:43:15;;;;;;;3.72;2.20;;;9.70;99.90;;;;;;5134629;27;20050;-74